Flight Track Log - Related Links

Times and Time Zones

All times are in EDT time to prevent confusion due to time zone crossing. See the FLG4057 flight status page for this flight to view local times or setup timezone preferences in your user account.

Time Position Orientation Groundspeed Altitude Reporting Facility
EDT Latitude Longitude Course Direction KTS MPH feet Rate Location/Type
Fri 05:34:05 PM 42.1781 -85.4508 112° Southeast 221 254 4,800  Level Chicago Center
Fri 05:35:09 PM 42.1578 -85.3289 103° East 280 322 7,900 2,806 Climbing Cleveland Center
Fri 05:36:09 PM 42.1411 -85.2267 102° East 293 337 10,600 1,550 Climbing Cleveland Center
Fri 05:37:09 PM 42.1192 -85.0964 103° East 325 374 11,000 200 Climbing Cleveland Center
Fri 05:38:00 PM 42.1301 -85.0790 106° East  Level FlightAware Approximate
Fri 05:38:09 PM 42.0936 -84.9489 103° East 367 422 11,000  Level Cleveland Center
Fri 05:39:09 PM 42.0614 -84.8125 108° East 386 444 11,900 500 Climbing Cleveland Center
Fri 05:40:09 PM 42.0203 -84.6756 112° Southeast 391 450 12,000 50 Climbing Cleveland Center
Fri 05:41:09 PM 41.9814 -84.5417 111° Southeast 391 450 12,000  Level Cleveland Center
Fri 05:42:09 PM 41.9400 -84.4050 112° Southeast 386 444 12,000  Level Cleveland Center
Fri 05:43:09 PM 41.8906 -84.2569 114° Southeast 386 444 12,000  Level Cleveland Center
Fri 05:44:09 PM 41.8492 -84.1208 112° Southeast 386 444 12,000  Level Cleveland Center
Fri 05:45:08 PM 41.8572 -83.9931 85° East 394 453 12,000  Level Cleveland Center
Fri 05:46:09 PM 41.9211 -83.8708 55° Northeast 347 399 12,000  Level Cleveland Center
Fri 05:47:16 PM 42.0097 -83.7578 43° Northeast 389 448 12,000  Level Cleveland Center
Fri 05:48:09 PM 42.0750 -83.6661 46° Northeast 373 429 12,000  Level Cleveland Center
Fri 05:48:29 PM 42.1031 -83.6281 45° Northeast 391 450 12,000  Level Cleveland Center
Fri 05:49:24 PM 42.1678 -83.5417 45° Northeast 331 381 12,000  Level Cleveland Center
Fri 05:50:09 PM 42.2083 -83.5069 32° Northeast 330 380 12,000 -393 Level Cleveland Center
Fri 05:50:25 PM 42.2358 -83.4944 19° North 241 277 11,600 -1,000 Descending Cleveland Center
Fri 05:51:09 PM 42.2758 -83.4708 24° Northeast 267 307 11,000 -984 Descending Cleveland Center
Fri 05:51:26 PM 42.3011 -83.4608 16° North 248 285 10,600 -1,357 Descending Cleveland Center
Fri 05:52:33 PM 42.3689 -83.4189 25° Northeast 240 276 9,100 -1,172 Descending Cleveland Center
Fri 05:53:34 PM 42.4303 -83.3794 25° Northeast 232 267 8,100 -983 Descending Cleveland Center
Fri 05:54:29 PM 42.4772 -83.3364 34° Northeast 238 274 7,200 -1,377 Descending Cleveland Center
Fri 05:55:36 PM 42.4544 -83.2425 108° East 231 266 5,300 -1,406 Descending Cleveland Center
Fri 05:56:37 PM 42.4067 -83.2350 173° South 174 200 4,200 -639 Descending Cleveland Center
Fri 05:57:38 PM 42.3664 -83.2642 208° Southwest 159 183 4,000 -517 Descending Cleveland Center
Fri 05:58:33 PM 42.3303 -83.2908 209° Southwest 159 183 3,200 -873 Descending Cleveland Center

Login

Don't have an account? Register now (free) for customized features, flight alerts, and more!